Terminal Aerodrome Forecast
Issued by NWS

Home | Current Version | Previous Version | Text Only | Print | Product List | Glossary On
Versions: 1 2 3 4 5 6 7 8 9 10 11 12 13
074
FTUS45 KABQ 171739
TAFLVS
TAF
KLVS 171739Z 1718/1818 13010KT P6SM SKC
     FM171900 18016G25KT P6SM SCT250
     FM180100 20013KT P6SM SCT250
     FM181700 24020G30KT P6SM BKN250=

USA.gov is the U.S. government's official web portal to all federal, state and local government web resources and services.